Last 24 Hour KALB Observations

Last 24 hours of surface weather observations from the Albany County Airport. Observations taken by the National Weather Service.


		
KALB 241451Z 18008KT 10SM FEW017 FEW250 16/14 A3001 RMK AO2 SLP162 T01610139
 50001 $=
KALB 241551Z 18006KT 10SM SCT020 SCT250 17/14 A3000 RMK A02 T01720139=
KALB 241604Z 18006KT 10SM SCT020 SCT250 17/14 A3000 RMK AO2 T01720139 $=
KALB 241604Z 18006KT 10SM SCT020 SCT250 17/14 A3000=
KALB 241651Z 22005KT 10SM FEW027 SCT034 SCT250 19/12 A2999 RMK AO2 SLP156
 T01890117 $=
KALB 241751Z 19008KT 10SM FEW038 FEW049 FEW250 21/11 A2998 RMK AO2 SLP152
 T02060106 10206 20111 $=
KALB 241851Z 12006KT 10SM FEW055 FEW250 20/12 A2998 RMK AO2 SLP150 T02000122 $=
KALB 241951Z 17005KT 10SM BKN050 BKN060 BKN240 19/12 A2999 RMK AO2 SLP154
 T01940122 $=
KALB 242051Z 22005KT 10SM SCT045 BKN055 BKN240 19/11 A3000 RMK AO2 SLP158
 T01940111 53005 $=
KALB 242151Z 29007KT 10SM BKN055 BKN240 19/11 A3001 RMK AO2 SLP164 T01890111 $=
KALB 242251Z 28007KT 10SM BKN050 BKN055 17/10 A3004 RMK AO2 SLP172 T01670100 $=
KALB 242351Z 27004KT 10SM BKN050 BKN060 16/10 A3006 RMK AO2 SLP178 T01610100
 10211 20161 53019 $=
KALB 250051Z 00000KT 10SM FEW060 15/11 A3007 RMK AO2 SLP182 T01500106 $=
KALB 250151Z 00000KT 10SM FEW060 13/11 A3007 RMK AO2 SLP182 T01280106 $=
KALB 250251Z 00000KT 10SM CLR 12/11 A3006 RMK AO2 SLP180 T01170111 50001 $=
KALB 250351Z 00000KT 10SM VCFG CLR 11/11 A3006 RMK AO2 SLP178 VCFG SE-SW
 T01110106 $=
KALB 250451Z 00000KT 10SM VCFG CLR 10/10 A3007 RMK AO2 SLP181 VCFG S-SW
 T01000100 402110100 $=
KALB 250551Z 00000KT 10SM BCFG FEW250 10/10 A3008 RMK AO2 SLP186 BCFG NW-N
 T01000100 10161 20100 53006 $=
KALB 250651Z 00000KT 10SM BCFG FEW250 09/09 A3008 RMK AO2 SLP186 BCFG N
 T00940094 $=
KALB 250751Z 00000KT 10SM BCFG FEW250 09/09 A3007 RMK AO2 SLP184 BCFG N AND W
 T00940094 $=
KALB 250851Z 00000KT 10SM BCFG CLR 09/09 A3007 RMK AO2 SLP182 BCFG N AND S-SW
 T00890089 58003 $=
KALB 251020Z 00000KT 2SM BCFG BKN002 08/08 A3008 RMK AO2 SFC VIS 6 T00830083 $=
KALB 251020Z 00000KT 2SM BCFG BKN002 08/08 A3008=
KALB 251029Z 00000KT 2SM BCFG BR BKN002 08/08 A3008=
KALB 251029Z 00000KT 2SM BCFG BR BKN002 08/08 A3008 RMK AO2 BCFG ALQDS
 T00830083 $=
KALB 251020Z COR 00000KT 2SM BCFG BR BKN002 08/08 A3008 RMK AO2 SFC VIS 1 BCFG
 ALQDS T00830083 $=
KALB 251020Z COR 00000KT 2SM BCFG BR BKN002 08/08 A3008=
KALB 251044Z 00000KT 1SM R01/P6000FT BCFG BR OVC003 08/08 A3008 RMK AO2 BCFG
 ALQDS T00830083 $=
KALB 251044Z 00000KT 1SM R01/P6000FT BCFG BR OVC003 08/08 A3008=
KALB 251051Z 00000KT 1SM R01/P6000FT BR OVC003 09/09 A3007 RMK AO2 SLP184 BCFG
 ALQDS T00890089 $=
KALB 251051Z COR 00000KT 1SM R01/P6000FT BR OVC003 09/09 A3007 RMK AO2 SLP184
 T00890089 $=
KALB 251121Z 00000KT 1SM R01/1200VP6000FT BR BCFG OVC002 09/09 A3008 RMK AO2
 T00890089 $=
KALB 251121Z 00000KT 1SM R01/1200VP6000FT BR BCFG OVC002 09/09 A3008=
KALB 251128Z 00000KT 1/2SM R01/1000V1600FT BR BCFG OVC002 09/09 A3008 RMK AO2
 SFC VIS 1 T00940094 $=
KALB 251128Z 00000KT 1/2SM R01/1000V1600FT BR BCFG OVC002 09/09 A3008=
KALB 251135Z 00000KT 1/2SM R01/1200V3000FT BR BCFG OVC002 09/09 A3008=
KALB 251135Z 00000KT 1/2SM R01/1200V3000FT BR BCFG OVC002 09/09 A3008 RMK AO2
 SFC VIS 1 1/4 T00940094 $=
KALB 251147Z 00000KT 1/2SM R01/2200V5000FT FG VV005 09/09 A3008 RMK AO2 $=
KALB 251147Z 00000KT 1/2SM R01/2200V5000FT FG VV005 09/09 A3008=
KALB 251151Z 00000KT 1/2SM R01/1400V5000FT FG VV005 09/09 A3008 RMK AO2 SLP186
 T00940094 10100 20078 53003 $=
KALB 251207Z 00000KT 3/4SM R01/2200VP6000FT BR BCFG OVC003 09/09 A3008 RMK AO2
 T00940094 $=
KALB 251207Z 00000KT 3/4SM R01/2200VP6000FT BR BCFG OVC003 09/09 A3008=
KALB 251220Z 00000KT 1/2SM R01/1800VP6000FT BR BCFG OVC002 09/09 A3008=
KALB 251220Z 00000KT 1/2SM R01/1800VP6000FT BR BCFG OVC002 09/09 A3008 RMK AO2
 SFC VIS 1 BCFG ALQDS T00940094 $=
KALB 251251Z 00000KT 1/2SM R01/1800V2400FT BR BCFG OVC002 09/09 A3008 RMK AO2
 SFC VIS 1 SLP186 BCFG ALQDS T00940094=
KALB 251339Z 00000KT 1SM R01/P6000FT BR BCFG OVC002 10/10 A3008 RMK AO2 BCFG
 ALQDS T01000100=
KALB 251339Z 00000KT 1SM R01/P6000FT BR BCFG OVC002 10/10 A3008=
KALB 251351Z 00000KT 1SM R01/P6000FT BR BCFG OVC003 11/11 A3008 RMK AO2 SFC VIS
 1 1/4 SLP185 BCFG N T01060106 $=
KALB 251401Z 00000KT 2 1/2SM BR BKN003 11/11 A3007 RMK AO2 T01110111 $=
KALB 251401Z 00000KT 2 1/2SM BR BKN003 11/11 A3007=
KALB 251414Z 21003KT 6SM BR BKN004 BKN200 11/11 A3007=
KALB 251414Z 21003KT 6SM BR BKN004 BKN200 11/11 A3007 RMK AO2 T01110111 $=
KALB 251431Z 00000KT 10SM SCT005 SCT200 13/13 A3007 RMK AO2 T01330128 $=
KALB 251431Z 00000KT 10SM SCT005 SCT200 13/13 A3007=
KALB 251451Z 00000KT 10SM FEW008 SCT220 14/13 A3006 RMK AO2 SLP180 T01390128
 58006 $=